Evening Mist — WBA7462 — position and weather

sailwx.info

Track history (hours):
 
Tides and Currents Weather Stations Pressure Air Temp Water Temp Dewpoint Dewpoint Depression Visibility Wind Speed Wind Dir Waves Ship Positions

Evening Mist

Owner: TUG EVENING MIST CORP, MELVILLE, NY. More information available from US FCC via Universal Licensing System and Coast Guard Vessel Documentation Center.

Last reported at 2018-Feb-24 03:56 UTC. Time now 2018-Feb-24 10:29 UTC.
Position N 40°49' W 073°47'.

Length 120 m; draft 5 m.

Type: Tow > 200 m length. MMSI: 367008230.

Date/timePositionNaut miles runAvg speedWind from/ knotsBaromVisibWave heightAir tempDewpointWater temp
2018-Feb-24 03:56N 40°49' W 073°47'3 5.9
2018-Feb-24 03:30N 40°48' W 073°50'3 6.9
2018-Feb-24 02:59N 40°48' W 073°55'3 6.5
2018-Feb-24 02:29N 40°45' W 073°58'3 5.9
2018-Feb-24 02:00N 40°43' W 073°59'3 5.4
2018-Feb-24 01:30N 40°41' W 074°01'2 4.9
2018-Feb-24 01:00N 40°39' W 074°04'3 6.0
2018-Feb-24 00:30N 40°39' W 074°07'3 5.5
2018-Feb-23 23:59N 40°39' W 074°11'3 5.3
2018-Feb-23 23:30N 40°36' W 074°12'1 0.8
2018-Feb-23 22:08N 40°35' W 074°13'1 5.1
2018-Feb-23 21:59N 40°36' W 074°12'3 6.0
2018-Feb-23 21:30N 40°39' W 074°11'3 6.1
2018-Feb-23 21:00N 40°39' W 074°07'0 0.0
2018-Feb-23 20:30N 40°39' W 074°07'0 0.0
2018-Feb-23 20:00N 40°39' W 074°07'0 0.0
2018-Feb-23 19:30N 40°39' W 074°07'0 0.0
2018-Feb-23 18:59N 40°39' W 074°07'0 0.0
2018-Feb-23 18:30N 40°39' W 074°07'0 0.0
2018-Feb-23 17:58N 40°39' W 074°07'0 0.0
2018-Feb-23 17:30N 40°39' W 074°07'0 0.0
2018-Feb-23 17:00N 40°39' W 074°07'0 0.0
2018-Feb-23 16:29N 40°39' W 074°07'0 0.0
2018-Feb-23 16:00N 40°39' W 074°07'0 0.2
2018-Feb-23 15:30N 40°39' W 074°07'0 0.1
2018-Feb-23 15:00N 40°38' W 074°07'0 0.0
2018-Feb-23 14:30N 40°38' W 074°07'0 0.0
2018-Feb-23 14:00N 40°38' W 074°07'0 0.0
2018-Feb-23 13:30N 40°38' W 074°07'0 0.1
2018-Feb-23 13:00N 40°39' W 074°07'0 0.6
2018-Feb-23 12:29N 40°39' W 074°08'3 7.1
2018-Feb-23 12:00N 40°38' W 074°12'3 3.2
2018-Feb-23 11:08N 40°35' W 074°13'0 0.6
2018-Feb-23 10:59N 40°35' W 074°12'3 5.2
2018-Feb-23 10:29N 40°38' W 074°12'3 6.5
2018-Feb-23 09:59N 40°39' W 074°08'3 6.2
2018-Feb-23 09:30N 40°39' W 074°04'2 3.1
2018-Feb-23 09:00N 40°40' W 074°02'0 0.0
2018-Feb-23 08:30N 40°40' W 074°02'0 0.0
2018-Feb-23 08:00N 40°40' W 074°02'0 0.0
2018-Feb-23 07:30N 40°40' W 074°02'0 0.1
2018-Feb-23 07:00N 40°40' W 074°02'0 0.1
2018-Feb-23 06:30N 40°40' W 074°02'0 0.0
2018-Feb-23 06:00N 40°40' W 074°02'0 0.0
2018-Feb-23 05:30N 40°40' W 074°02'0 0.1
2018-Feb-23 05:00N 40°40' W 074°02'0 0.0
2018-Feb-23 04:30N 40°40' W 074°02'0 0.1
2018-Feb-23 04:00N 40°40' W 074°02'0 0.0
2018-Feb-23 03:30N 40°40' W 074°02'0 0.0
2018-Feb-23 03:00N 40°40' W 074°02'0 0.0
2018-Feb-23 02:30N 40°40' W 074°02'0 0.0
2018-Feb-23 02:00N 40°40' W 074°02'0 0.0
2018-Feb-23 01:30N 40°40' W 074°02'0 0.0
2018-Feb-23 01:00N 40°40' W 074°02'0 0.0
2018-Feb-23 00:30N 40°40' W 074°02'0 0.0
2018-Feb-23 00:00N 40°40' W 074°02'0 0.0
2018-Feb-22 23:30N 40°40' W 074°02'0 0.0
2018-Feb-22 23:00N 40°40' W 074°02'0 0.0
2018-Feb-22 22:30N 40°40' W 074°02'0 0.0
2018-Feb-22 22:00N 40°40' W 074°02'0 0.0
2018-Feb-22 21:30N 40°40' W 074°02'0 0.0
2018-Feb-22 21:00N 40°40' W 074°02'0 0.0
2018-Feb-22 20:30N 40°40' W 074°02'0 0.0
2018-Feb-22 20:00N 40°40' W 074°02'0 0.0
2018-Feb-22 19:30N 40°40' W 074°02'0 0.0
2018-Feb-22 19:00N 40°40' W 074°02'0 0.0
2018-Feb-22 18:30N 40°40' W 074°02'0 0.0
2018-Feb-22 18:00N 40°40' W 074°02'0 0.0
2018-Feb-22 17:30N 40°40' W 074°02'0 0.1
2018-Feb-22 17:00N 40°40' W 074°02'0 0.0
2018-Feb-22 16:30N 40°40' W 074°02'0 0.0
2018-Feb-22 16:00N 40°40' W 074°02'0 0.1
2018-Feb-22 15:30N 40°40' W 074°02'0 0.0
2018-Feb-22 15:00N 40°40' W 074°02'0 0.0
2018-Feb-22 14:30N 40°40' W 074°02'0 0.0
2018-Feb-22 14:00N 40°40' W 074°02'0 0.0
2018-Feb-22 13:30N 40°40' W 074°02'0 0.0
2018-Feb-22 13:00N 40°40' W 074°02'0 0.0
2018-Feb-22 12:30N 40°40' W 074°02'0 0.0
2018-Feb-22 12:00N 40°40' W 074°02'0 0.0
2018-Feb-22 11:30N 40°40' W 074°02'0 0.0
2018-Feb-22 11:00N 40°40' W 074°02'0 0.0
2018-Feb-22 10:30N 40°40' W 074°02'0 0.0
2018-Feb-22 10:00N 40°40' W 074°02'0 0.0
2018-Feb-22 09:30N 40°40' W 074°02'0 0.0
2018-Feb-22 09:00N 40°40' W 074°02'0 0.0
2018-Feb-22 08:30N 40°40' W 074°02'0 0.0
2018-Feb-22 08:00N 40°40' W 074°02'1 1.1
2018-Feb-22 07:30N 40°40' W 074°02'2 3.4
2018-Feb-22 07:00N 40°41' W 074°00'1 1.8
2018-Feb-22 06:30N 40°41' W 074°01'1 2.7
2018-Feb-22 06:00N 40°40' W 074°02'0 0.1
2018-Feb-22 05:30N 40°40' W 074°02'0 0.0
2018-Feb-22 05:00N 40°40' W 074°02'0 0.1
2018-Feb-22 04:30N 40°40' W 074°02'0 0.0
2018-Feb-22 04:00N 40°40' W 074°02'0 0.0
2018-Feb-22 03:29N 40°40' W 074°02'0 0.0
2018-Feb-22 03:00N 40°40' W 074°02'0 0.0
2018-Feb-22 02:30N 40°40' W 074°02'0 0.0
2018-Feb-22 02:00N 40°40' W 074°02'0 0.8
2018-Feb-22 01:30N 40°40' W 074°03'3 4.9
2018-Feb-22 01:00N 40°39' W 074°06'3 4.9
2018-Feb-22 00:29N 40°39' W 074°09'2 3.9
2018-Feb-21 23:58N 40°41' W 074°09'0 0.6
2018-Feb-21 23:30N 40°41' W 074°10'2 4.2
2018-Feb-21 23:00N 40°39' W 074°09'4 7.2
2018-Feb-21 22:30N 40°37' W 074°12'3 6.7
2018-Feb-21 22:00N 40°33' W 074°14'1 2.9
2018-Feb-21 21:30N 40°33' W 074°15'0 0.6
2018-Feb-21 20:58N 40°32' W 074°15'0 0.2
2018-Feb-21 20:08N 40°32' W 074°15'1 5.3
2018-Feb-21 19:54N 40°33' W 074°14'3 6.9
2018-Feb-21 19:30N 40°36' W 074°12'3 6.6
2018-Feb-21 19:00N 40°39' W 074°11'2 4.5
2018-Feb-21 18:30N 40°39' W 074°08'0 0.7
2018-Feb-21 18:00N 40°39' W 074°07'0 0.0
2018-Feb-21 17:30N 40°39' W 074°07'3 7.0
2018-Feb-21 17:00N 40°38' W 074°12'2 3.4
2018-Feb-21 16:30N 40°37' W 074°12'0 0.0
2018-Feb-21 16:00N 40°37' W 074°12'1 1.3
2018-Feb-21 15:30N 40°37' W 074°12'3 5.9
2018-Feb-21 15:00N 40°39' W 074°09'1 1.2
2018-Feb-21 14:30N 40°39' W 074°08'3 6.7
2018-Feb-21 13:59N 40°37' W 074°12'1 1.7
2018-Feb-21 13:14N 40°36' W 074°12'0 0.0
2018-Feb-21 12:59N 40°36' W 074°12'1 1.4
2018-Feb-21 12:30N 40°35' W 074°12'0 0.0
2018-Feb-21 12:00N 40°35' W 074°12'0 0.0
2018-Feb-21 11:30N 40°35' W 074°12'0 0.0
2018-Feb-21 11:00N 40°35' W 074°12'0 0.0
2018-Feb-21 10:30N 40°35' W 074°12'0 0.0
2018-Feb-21 07:05N 40°35' W 074°12'0 0.0
2018-Feb-21 06:55N 40°35' W 074°12'0 0.0
2018-Feb-21 06:29N 40°35' W 074°12'0 0.0
2018-Feb-21 05:59N 40°35' W 074°12'0 0.0
2018-Feb-21 05:29N 40°35' W 074°12'0 0.0
2018-Feb-21 05:00N 40°35' W 074°12'0 0.0
2018-Feb-21 04:28N 40°35' W 074°12'0 0.0
2018-Feb-21 03:33N 40°35' W 074°12'0 1.5
2018-Feb-21 03:24N 40°36' W 074°12'0 1.1
2018-Feb-21 03:00N 40°36' W 074°12'2 3.8
2018-Feb-21 02:29N 40°38' W 074°12'4 7.7
2018-Feb-21 02:00N 40°39' W 074°07'0 0.1
2018-Feb-21 01:31N 40°39' W 074°07'0 0.0
2018-Feb-21 00:59N 40°39' W 074°07'0 0.0
2018-Feb-21 00:30N 40°39' W 074°07'0 0.9
2018-Feb-21 00:00N 40°39' W 074°08'3 6.7
2018-Feb-20 23:30N 40°38' W 074°12'2 5.0
2018-Feb-20 23:00N 40°35' W 074°12'0 0.0
2018-Feb-20 22:26N 40°35' W 074°12'0 0.0
2018-Feb-20 21:56N 40°35' W 074°12'0 0.0
2018-Feb-20 21:25N 40°35' W 074°12'0 0.0
2018-Feb-20 20:59N 40°35' W 074°12'0 0.0
2018-Feb-20 20:29N 40°35' W 074°12'1 2.3
2018-Feb-20 19:59N 40°37' W 074°12'0 0.0
2018-Feb-20 19:30N 40°37' W 074°12'0 0.1
2018-Feb-20 19:00N 40°36' W 074°12'3 6.5
2018-Feb-20 18:30N 40°39' W 074°09'1 2.9
2018-Feb-20 18:00N 40°39' W 074°07'0 0.0
2018-Feb-20 17:30N 40°39' W 074°07'0 0.0
2018-Feb-20 17:00N 40°39' W 074°07'1 2.2
2018-Feb-20 16:30N 40°38' W 074°09'1 0.5
2018-Feb-20 14:58N 40°39' W 074°10'1 3.0
2018-Feb-20 14:30N 40°39' W 074°08'4 6.7
2018-Feb-20 13:59N 40°38' W 074°12'2 0.7
2018-Feb-20 10:46N 40°35' W 074°12'0 0.0
2018-Feb-20 10:28N 40°35' W 074°12'0 0.0
2018-Feb-20 09:59N 40°35' W 074°12'0 0.0
2018-Feb-20 09:30N 40°35' W 074°12'0 0.0
2018-Feb-20 08:57N 40°35' W 074°12'0 0.0
2018-Feb-20 08:29N 40°35' W 074°12'0 0.0
2018-Feb-20 08:00N 40°35' W 074°12'0 0.0
2018-Feb-20 07:19N 40°35' W 074°12'0 0.0
2018-Feb-20 04:43N 40°35' W 074°12'1 3.0
2018-Feb-20 04:28N 40°36' W 074°12'0 0.9
2018-Feb-20 04:00N 40°36' W 074°12'0 0.0
2018-Feb-20 03:29N 40°36' W 074°12'0 0.2
2018-Feb-20 03:00N 40°36' W 074°12'2 5.0
2018-Feb-20 02:30N 40°39' W 074°11'3 6.7
2018-Feb-20 02:00N 40°39' W 074°07'0 0.0
2018-Feb-20 01:30N 40°39' W 074°07'0 0.0
2018-Feb-20 00:59N 40°39' W 074°07'0 0.0
2018-Feb-20 00:30N 40°39' W 074°07'0 0.0
2018-Feb-20 00:00N 40°39' W 074°07'0 0.0
2018-Feb-19 23:29N 40°39' W 074°07'0 0.0
2018-Feb-19 23:00N 40°39' W 074°07'0 0.0
2018-Feb-19 22:30N 40°39' W 074°07'0 0.0
2018-Feb-19 22:00N 40°39' W 074°07'0 0.0
2018-Feb-19 21:30N 40°39' W 074°07'0 0.0
2018-Feb-19 21:00N 40°39' W 074°07'0 0.0
2018-Feb-19 20:29N 40°39' W 074°07'0 0.0
2018-Feb-19 20:00N 40°39' W 074°07'0 0.0
2018-Feb-19 19:30N 40°39' W 074°07'0 0.0
2018-Feb-19 19:00N 40°39' W 074°07'0 0.0
2018-Feb-19 18:29N 40°39' W 074°07'0 0.5
2018-Feb-19 18:00N 40°39' W 074°07'0 0.3
2018-Feb-19 17:30N 40°39' W 074°07'0 0.4
2018-Feb-19 17:00N 40°39' W 074°07'0 0.3
2018-Feb-19 16:30N 40°38' W 074°07'0 0.0
2018-Feb-19 16:00N 40°38' W 074°07'0 0.0
2018-Feb-19 15:30N 40°38' W 074°07'0 0.0
2018-Feb-19 14:58N 40°38' W 074°07'2 4.4
2018-Feb-19 14:30N 40°39' W 074°10'3 6.4
2018-Feb-19 14:00N 40°36' W 074°12'1 1.4
2018-Feb-19 13:25N 40°35' W 074°12'0 0.1
2018-Feb-19 10:38N 40°35' W 074°12'0 0.0
2018-Feb-19 10:30N 40°35' W 074°12'0 0.0
2018-Feb-19 10:00N 40°35' W 074°12'0 0.0
2018-Feb-19 09:27N 40°35' W 074°12'0 0.0
2018-Feb-19 08:59N 40°35' W 074°12'0 0.0
2018-Feb-19 08:25N 40°35' W 074°12'1 1.4
2018-Feb-19 07:59N 40°36' W 074°12'3 6.1
2018-Feb-19 07:30N 40°39' W 074°11'3 4.8
2018-Feb-19 06:59N 40°41' W 074°09'1 1.7
2018-Feb-19 06:29N 40°41' W 074°10'0 0.0
2018-Feb-19 06:00N 40°41' W 074°10'0 0.0
2018-Feb-19 05:30N 40°41' W 074°10'0 0.0
2018-Feb-19 04:59N 40°41' W 074°10'0 0.0
2018-Feb-19 04:30N 40°41' W 074°10'0 0.0
2018-Feb-19 04:00N 40°41' W 074°10'2 4.5
2018-Feb-19 03:30N 40°39' W 074°09'4 7.1
2018-Feb-19 03:00N 40°36' W 074°12'0 0.3
2018-Feb-19 02:14N 40°36' W 074°12'0 0.5
2018-Feb-19 02:00N 40°36' W 074°12'1 2.3
2018-Feb-19 01:30N 40°35' W 074°13'0 0.7
2018-Feb-19 00:53N 40°35' W 074°12'0 0.0
2018-Feb-19 00:29N 40°35' W 074°12'0 0.0
2018-Feb-18 23:57N 40°35' W 074°12'0 0.0
2018-Feb-18 23:08N 40°35' W 074°12'0 0.0
2018-Feb-18 22:55N 40°35' W 074°12'0 0.0
2018-Feb-18 22:25N 40°35' W 074°12'0 0.0
2018-Feb-18 21:57N 40°35' W 074°12'0 0.0
2018-Feb-18 21:29N 40°35' W 074°12'0 0.0
2018-Feb-18 21:00N 40°35' W 074°12'0 0.0
2018-Feb-18 20:24N 40°35' W 074°12'0 0.0
2018-Feb-18 20:00N 40°35' W 074°12'0 0.0
2018-Feb-18 19:30N 40°35' W 074°12'0 0.0
2018-Feb-18 19:00N 40°35' W 074°12'0 0.0
2018-Feb-18 18:30N 40°35' W 074°12'0 0.0
2018-Feb-18 17:59N 40°35' W 074°12'0 0.0
2018-Feb-18 17:30N 40°35' W 074°12'0 0.0
2018-Feb-18 16:11N 40°35' W 074°12'0 0.0
2018-Feb-18 15:46N 40°35' W 074°12'0 0.0
2018-Feb-18 15:30N 40°35' W 074°12'0 0.0
2018-Feb-18 15:00N 40°35' W 074°12'0 0.0
2018-Feb-18 14:30N 40°35' W 074°12'0 0.0
2018-Feb-18 14:00N 40°35' W 074°12'0 0.2
2018-Feb-18 13:28N 40°35' W 074°12'0 0.1
2018-Feb-18 13:00N 40°35' W 074°12'1 0.9
2018-Feb-18 12:27N 40°36' W 074°12'0 0.8
2018-Feb-18 12:00N 40°35' W 074°12'0 0.0
2018-Feb-18 11:30N 40°35' W 074°12'0 0.0
2018-Feb-18 10:59N 40°35' W 074°12'0 0.0
2018-Feb-18 10:30N 40°35' W 074°12'0 0.0
2018-Feb-18 10:00N 40°35' W 074°12'0 0.0
2018-Feb-18 09:30N 40°35' W 074°12'0 0.0
2018-Feb-18 09:00N 40°35' W 074°12'0 0.0
2018-Feb-18 08:30N 40°35' W 074°12'0 0.0
2018-Feb-18 08:00N 40°35' W 074°12'0 0.0
2018-Feb-18 07:29N 40°35' W 074°12'0 0.0
2018-Feb-18 07:00N 40°35' W 074°12'0 0.0
2018-Feb-18 06:28N 40°35' W 074°12'0 0.0
2018-Feb-18 06:00N 40°35' W 074°12'0 0.0
2018-Feb-18 05:29N 40°35' W 074°12'0 0.7
2018-Feb-18 04:59N 40°35' W 074°12'0 0.6
2018-Feb-18 04:27N 40°35' W 074°12'0 0.0
2018-Feb-18 04:00N 40°35' W 074°12'0 0.0
2018-Feb-18 03:30N 40°35' W 074°12'0 0.0
2018-Feb-18 03:00N 40°35' W 074°12'0 0.0
2018-Feb-18 02:26N 40°35' W 074°12'0 0.0
2018-Feb-18 02:00N 40°35' W 074°12'0 0.0
2018-Feb-18 01:29N 40°35' W 074°12'0 0.0
2018-Feb-18 00:56N 40°35' W 074°12'0 0.0
2018-Feb-18 00:29N 40°35' W 074°12'0 0.0
2018-Feb-17 23:59N 40°35' W 074°12'0 0.0
2018-Feb-17 23:30N 40°35' W 074°12'0 0.0
2018-Feb-17 22:52N 40°35' W 074°12'0 0.0
2018-Feb-17 22:28N 40°35' W 074°12'0 0.0
2018-Feb-17 22:00N 40°35' W 074°12'0 0.0
2018-Feb-17 21:28N 40°35' W 074°12'2 3.9
2018-Feb-17 20:56N 40°33' W 074°13'2 4.5
2018-Feb-17 20:24N 40°31' W 074°15'1 2.5
2018-Feb-17 19:52N 40°33' W 074°15'3 6.5
2018-Feb-17 19:28N 40°35' W 074°13'0 0.6
2018-Feb-17 18:58N 40°35' W 074°13'1 2.6
2018-Feb-17 18:29N 40°36' W 074°12'3 6.2
2018-Feb-17 18:00N 40°39' W 074°11'3 5.6
2018-Feb-17 17:30N 40°39' W 074°07'0 0.0
2018-Feb-17 17:00N 40°39' W 074°07'0 0.0
2018-Feb-17 16:30N 40°39' W 074°07'0 0.0
2018-Feb-17 16:00N 40°39' W 074°07'0 0.0
2018-Feb-17 15:28N 40°39' W 074°07'0 0.0
2018-Feb-17 15:00N 40°39' W 074°07'0 0.0
2018-Feb-17 14:30N 40°39' W 074°07'0 0.0
2018-Feb-17 14:00N 40°39' W 074°07'0 0.0
2018-Feb-17 13:30N 40°39' W 074°07'0 0.0
2018-Feb-17 12:59N 40°39' W 074°07'0 0.0
2018-Feb-17 12:29N 40°39' W 074°07'0 0.0
2018-Feb-17 12:00N 40°39' W 074°07'0 0.0
2018-Feb-17 11:30N 40°39' W 074°07'0 0.0
2018-Feb-17 11:00N 40°39' W 074°07'0 0.0
2018-Feb-17 10:30N 40°39' W 074°07'0 0.0
2018-Feb-17 10:00N 40°39' W 074°07'0 0.0
2018-Feb-17 09:30N 40°39' W 074°07'0 0.0
2018-Feb-17 09:00N 40°39' W 074°07'0 0.0
2018-Feb-17 08:30N 40°39' W 074°07'0 0.0
2018-Feb-17 08:00N 40°39' W 074°07'0 0.0
2018-Feb-17 07:30N 40°39' W 074°07'0 0.0
2018-Feb-17 07:00N 40°39' W 074°07'0 0.0
2018-Feb-17 06:30N 40°39' W 074°07'0 0.0
2018-Feb-17 06:00N 40°39' W 074°07'0 0.0
2018-Feb-17 05:30N 40°39' W 074°07'0 0.0
2018-Feb-17 04:59N 40°39' W 074°07'0 0.0
2018-Feb-17 04:30N 40°39' W 074°07'0 0.0
2018-Feb-17 04:00N 40°39' W 074°07'0 0.0
2018-Feb-17 03:30N 40°39' W 074°07'0 0.0
2018-Feb-17 03:00N 40°39' W 074°07'0 0.0
2018-Feb-17 02:30N 40°39' W 074°07'0 0.0
2018-Feb-17 02:00N 40°39' W 074°07'0 0.0
2018-Feb-17 01:30N 40°39' W 074°07'0 0.0
2018-Feb-17 01:00N 40°39' W 074°07'0 0.0
2018-Feb-17 00:29N 40°39' W 074°07'0 0.0
2018-Feb-17 00:00N 40°39' W 074°07'0 0.0
2018-Feb-16 23:30N 40°39' W 074°07'0 0.0
2018-Feb-16 23:00N 40°39' W 074°07'0 0.0
2018-Feb-16 22:30N 40°39' W 074°07'0 0.0
2018-Feb-16 22:00N 40°39' W 074°07'0 0.0
2018-Feb-16 21:30N 40°39' W 074°07'0 0.0
2018-Feb-16 21:00N 40°39' W 074°07'0 0.0
2018-Feb-16 20:29N 40°39' W 074°07'0 0.0
2018-Feb-16 19:59N 40°39' W 074°07'0 0.0
2018-Feb-16 18:30N 40°39' W 074°07'0 0.0
2018-Feb-16 18:00N 40°39' W 074°07'0 0.0
2018-Feb-16 17:30N 40°39' W 074°07'0 0.0
2018-Feb-16 17:00N 40°39' W 074°07'0 0.0
2018-Feb-16 16:30N 40°39' W 074°07'0 0.0
2018-Feb-16 15:58N 40°39' W 074°07'0 0.0
2018-Feb-16 15:29N 40°39' W 074°07'0 0.0
2018-Feb-16 15:00N 40°39' W 074°07'0 0.5
2018-Feb-16 14:30N 40°39' W 074°07'1 1.0
2018-Feb-16 13:56N 40°39' W 074°06'0 0.0
2018-Feb-16 13:30N 40°39' W 074°06'0 0.0
2018-Feb-16 12:59N 40°39' W 074°06'0 0.0
2018-Feb-16 12:30N 40°39' W 074°06'0 0.0
2018-Feb-16 12:00N 40°39' W 074°06'0 0.0
2018-Feb-16 11:30N 40°39' W 074°06'0 0.0
2018-Feb-16 11:00N 40°39' W 074°06'0 0.0
2018-Feb-16 10:27N 40°39' W 074°06'1 2.7
2018-Feb-16 10:00N 40°39' W 074°04'4 7.1
2018-Feb-16 09:30N 40°41' W 074°01'4 7.5
2018-Feb-16 09:00N 40°45' W 073°58'2 4.0
2018-Feb-16 08:29N 40°46' W 073°57'3 6.3
2018-Feb-16 08:00N 40°44' W 073°58'3 5.5
2018-Feb-16 07:30N 40°42' W 074°00'0 0.0
2018-Feb-16 07:00N 40°42' W 074°00'0 0.0
2018-Feb-16 06:30N 40°42' W 074°00'0 0.0
2018-Feb-16 06:00N 40°42' W 074°00'0 0.0
2018-Feb-16 05:30N 40°42' W 074°00'0 0.2
2018-Feb-16 05:00N 40°41' W 074°00'0 0.0
2018-Feb-16 04:30N 40°41' W 074°00'0 0.0
2018-Feb-16 04:00N 40°41' W 074°00'3 6.7
2018-Feb-16 03:30N 40°39' W 074°04'5 9.5
2018-Feb-16 03:00N 40°39' W 074°10'3 6.4
2018-Feb-16 02:30N 40°36' W 074°12'1 1.3
2018-Feb-16 02:00N 40°35' W 074°12'0 0.1
2018-Feb-15 23:18N 40°36' W 074°12'0 0.0
2018-Feb-15 22:50N 40°36' W 074°12'0 0.0
2018-Feb-15 22:16N 40°36' W 074°12'0 0.0
2018-Feb-15 21:43N 40°36' W 074°12'0 0.0
2018-Feb-15 21:26N 40°36' W 074°12'2 3.8
2018-Feb-15 21:00N 40°37' W 074°12'3 6.9
2018-Feb-15 20:30N 40°39' W 074°08'1 2.1
2018-Feb-15 20:00N 40°39' W 074°07'0 0.3
2018-Feb-15 19:30N 40°39' W 074°06'0 0.0
2018-Feb-15 19:00N 40°39' W 074°06'4 7.5
2018-Feb-15 18:30N 40°39' W 074°11'3 0.9
2018-Feb-15 15:22N 40°36' W 074°12'0 0.0
2018-Feb-15 14:59N 40°36' W 074°12'0 0.0
2018-Feb-15 11:39N 40°36' W 074°12'0 0.0
2018-Feb-15 11:25N 40°36' W 074°12'0 0.0
2018-Feb-15 10:52N 40°36' W 074°12'0 0.0
2018-Feb-15 10:28N 40°36' W 074°12'0 0.0
2018-Feb-15 09:33N 40°36' W 074°12'0 0.0
2018-Feb-15 09:30N 40°36' W 074°12'0 0.0
2018-Feb-15 08:57N 40°36' W 074°12'0 0.0
2018-Feb-15 07:59N 40°36' W 074°12'0 0.0
2018-Feb-15 07:29N 40°36' W 074°12'0 0.0
2018-Feb-15 06:59N 40°36' W 074°12'0 0.0
2018-Feb-15 06:30N 40°36' W 074°12'0 0.0
2018-Feb-15 05:46N 40°36' W 074°12'0 0.0
2018-Feb-15 05:29N 40°36' W 074°12'0 0.0
2018-Feb-15 03:05N 40°36' W 074°12'0 2.8
2018-Feb-15 02:58N 40°35' W 074°12'0 0.1
2018-Feb-15 02:29N 40°36' W 074°12'0 0.1
2018-Feb-15 02:00N 40°35' W 074°12'1 2.8
2018-Feb-15 01:30N 40°37' W 074°12'3 6.2
2018-Feb-15 01:00N 40°39' W 074°09'2 3.2
2018-Feb-15 00:30N 40°39' W 074°07'0 0.0
2018-Feb-15 00:00N 40°39' W 074°07'0 0.0
2018-Feb-14 23:30N 40°39' W 074°07'0 0.0
2018-Feb-14 23:00N 40°39' W 074°07'0 0.0
2018-Feb-14 22:30N 40°39' W 074°07'0 0.0
2018-Feb-14 22:00N 40°39' W 074°07'0 0.0
2018-Feb-14 21:26N 40°39' W 074°07'0 0.0
2018-Feb-14 21:00N 40°39' W 074°07'0 0.0
2018-Feb-14 20:30N 40°39' W 074°07'0 0.0
2018-Feb-14 20:00N 40°39' W 074°07'0 0.0
2018-Feb-14 19:29N 40°39' W 074°07'0 0.0
2018-Feb-14 18:59N 40°39' W 074°07'0 0.0
2018-Feb-14 18:30N 40°39' W 074°07'0 0.0
2018-Feb-14 18:00N 40°39' W 074°07'0 0.0
2018-Feb-14 17:30N 40°39' W 074°07'0 0.0
2018-Feb-14 17:00N 40°39' W 074°07'0 0.0
2018-Feb-14 16:30N 40°39' W 074°07'0 0.0
2018-Feb-14 16:00N 40°39' W 074°07'0 0.0
2018-Feb-14 15:30N 40°39' W 074°07'0 0.0
2018-Feb-14 14:59N 40°39' W 074°07'0 0.0
2018-Feb-14 14:30N 40°39' W 074°07'0 0.0
2018-Feb-14 14:00N 40°39' W 074°07'2 4.9
2018-Feb-14 13:30N 40°39' W 074°10'3 6.5
2018-Feb-14 13:00N 40°36' W 074°12'0 0.5
2018-Feb-14 12:30N 40°36' W 074°12'0 0.0
2018-Feb-14 12:00N 40°36' W 074°12'0 0.0
2018-Feb-14 11:30N 40°36' W 074°12'0 0.0
2018-Feb-14 11:00N 40°36' W 074°12'0 0.0
2018-Feb-14 10:30N 40°36' W 074°12'0 0.0
2018-Feb-14 10:00N 40°36' W 074°12'0 0.0
2018-Feb-14 09:30N 40°36' W 074°12'0 0.0
2018-Feb-14 09:00N 40°36' W 074°12'0 0.0
2018-Feb-14 08:29N 40°36' W 074°12'0 0.0
2018-Feb-14 07:58N 40°36' W 074°12'0 0.0
2018-Feb-14 07:30N 40°36' W 074°12'0 0.0
2018-Feb-14 07:00N 40°36' W 074°12'0 0.0
2018-Feb-14 06:30N 40°36' W 074°12'0 0.0
2018-Feb-14 06:00N 40°36' W 074°12'0 0.0
2018-Feb-14 05:28N 40°36' W 074°12'3 5.7
2018-Feb-14 05:00N 40°38' W 074°12'3 6.2
2018-Feb-14 04:30N 40°40' W 074°08'1 2.8
2018-Feb-14 03:59N 40°41' W 074°10'  
Track history (hours):
 
Tides and Currents Weather Stations Pressure Air Temp Water Temp Dewpoint Dewpoint Depression Visibility Wind Speed Wind Dir Waves Ship Positions

Evening Mist

Owner: TUG EVENING MIST CORP, MELVILLE, NY. More information available from US FCC via Universal Licensing System and Coast Guard Vessel Documentation Center.

Last reported at 2018-Feb-24 03:56 UTC. Time now 2018-Feb-24 10:29 UTC.
Position N 40°49' W 073°47'.

Length 120 m; draft 5 m.

Type: Tow > 200 m length. MMSI: 367008230.

Date/timePositionNaut miles runAvg speedWind from/ knotsBaromVisibWave heightAir tempDewpointWater temp
2018-Feb-24 03:56N 40°49' W 073°47'3 5.9
2018-Feb-24 03:30N 40°48' W 073°50'3 6.9
2018-Feb-24 02:59N 40°48' W 073°55'3 6.5
2018-Feb-24 02:29N 40°45' W 073°58'3 5.9
2018-Feb-24 02:00N 40°43' W 073°59'3 5.4
2018-Feb-24 01:30N 40°41' W 074°01'2 4.9
2018-Feb-24 01:00N 40°39' W 074°04'3 6.0
2018-Feb-24 00:30N 40°39' W 074°07'3 5.5
2018-Feb-23 23:59N 40°39' W 074°11'3 5.3
2018-Feb-23 23:30N 40°36' W 074°12'1 0.8
2018-Feb-23 22:08N 40°35' W 074°13'1 5.1
2018-Feb-23 21:59N 40°36' W 074°12'3 6.0
2018-Feb-23 21:30N 40°39' W 074°11'3 6.1
2018-Feb-23 21:00N 40°39' W 074°07'0 0.0
2018-Feb-23 20:30N 40°39' W 074°07'0 0.0
2018-Feb-23 20:00N 40°39' W 074°07'0 0.0
2018-Feb-23 19:30N 40°39' W 074°07'0 0.0
2018-Feb-23 18:59N 40°39' W 074°07'0 0.0
2018-Feb-23 18:30N 40°39' W 074°07'0 0.0
2018-Feb-23 17:58N 40°39' W 074°07'0 0.0
2018-Feb-23 17:30N 40°39' W 074°07'0 0.0
2018-Feb-23 17:00N 40°39' W 074°07'0 0.0
2018-Feb-23 16:29N 40°39' W 074°07'0 0.0
2018-Feb-23 16:00N 40°39' W 074°07'0 0.2
2018-Feb-23 15:30N 40°39' W 074°07'0 0.1
2018-Feb-23 15:00N 40°38' W 074°07'0 0.0
2018-Feb-23 14:30N 40°38' W 074°07'0 0.0
2018-Feb-23 14:00N 40°38' W 074°07'0 0.0
2018-Feb-23 13:30N 40°38' W 074°07'0 0.1
2018-Feb-23 13:00N 40°39' W 074°07'0 0.6
2018-Feb-23 12:29N 40°39' W 074°08'3 7.1
2018-Feb-23 12:00N 40°38' W 074°12'3 3.2
2018-Feb-23 11:08N 40°35' W 074°13'0 0.6
2018-Feb-23 10:59N 40°35' W 074°12'3 5.2
2018-Feb-23 10:29N 40°38' W 074°12'3 6.5
2018-Feb-23 09:59N 40°39' W 074°08'3 6.2
2018-Feb-23 09:30N 40°39' W 074°04'2 3.1
2018-Feb-23 09:00N 40°40' W 074°02'0 0.0
2018-Feb-23 08:30N 40°40' W 074°02'0 0.0
2018-Feb-23 08:00N 40°40' W 074°02'0 0.0
2018-Feb-23 07:30N 40°40' W 074°02'0 0.1
2018-Feb-23 07:00N 40°40' W 074°02'0 0.1
2018-Feb-23 06:30N 40°40' W 074°02'0 0.0
2018-Feb-23 06:00N 40°40' W 074°02'0 0.0
2018-Feb-23 05:30N 40°40' W 074°02'0 0.1
2018-Feb-23 05:00N 40°40' W 074°02'0 0.0
2018-Feb-23 04:30N 40°40' W 074°02'0 0.1
2018-Feb-23 04:00N 40°40' W 074°02'0 0.0
2018-Feb-23 03:30N 40°40' W 074°02'0 0.0
2018-Feb-23 03:00N 40°40' W 074°02'0 0.0
2018-Feb-23 02:30N 40°40' W 074°02'0 0.0
2018-Feb-23 02:00N 40°40' W 074°02'0 0.0
2018-Feb-23 01:30N 40°40' W 074°02'0 0.0
2018-Feb-23 01:00N 40°40' W 074°02'0 0.0
2018-Feb-23 00:30N 40°40' W 074°02'0 0.0
2018-Feb-23 00:00N 40°40' W 074°02'0 0.0
2018-Feb-22 23:30N 40°40' W 074°02'0 0.0
2018-Feb-22 23:00N 40°40' W 074°02'0 0.0
2018-Feb-22 22:30N 40°40' W 074°02'0 0.0
2018-Feb-22 22:00N 40°40' W 074°02'0 0.0
2018-Feb-22 21:30N 40°40' W 074°02'0 0.0
2018-Feb-22 21:00N 40°40' W 074°02'0 0.0
2018-Feb-22 20:30N 40°40' W 074°02'0 0.0
2018-Feb-22 20:00N 40°40' W 074°02'0 0.0
2018-Feb-22 19:30N 40°40' W 074°02'0 0.0
2018-Feb-22 19:00N 40°40' W 074°02'0 0.0
2018-Feb-22 18:30N 40°40' W 074°02'0 0.0
2018-Feb-22 18:00N 40°40' W 074°02'0 0.0
2018-Feb-22 17:30N 40°40' W 074°02'0 0.1
2018-Feb-22 17:00N 40°40' W 074°02'0 0.0
2018-Feb-22 16:30N 40°40' W 074°02'0 0.0
2018-Feb-22 16:00N 40°40' W 074°02'0 0.1
2018-Feb-22 15:30N 40°40' W 074°02'0 0.0
2018-Feb-22 15:00N 40°40' W 074°02'0 0.0
2018-Feb-22 14:30N 40°40' W 074°02'0 0.0
2018-Feb-22 14:00N 40°40' W 074°02'0 0.0
2018-Feb-22 13:30N 40°40' W 074°02'0 0.0
2018-Feb-22 13:00N 40°40' W 074°02'0 0.0
2018-Feb-22 12:30N 40°40' W 074°02'0 0.0
2018-Feb-22 12:00N 40°40' W 074°02'0 0.0
2018-Feb-22 11:30N 40°40' W 074°02'0 0.0
2018-Feb-22 11:00N 40°40' W 074°02'0 0.0
2018-Feb-22 10:30N 40°40' W 074°02'0 0.0
2018-Feb-22 10:00N 40°40' W 074°02'0 0.0
2018-Feb-22 09:30N 40°40' W 074°02'0 0.0
2018-Feb-22 09:00N 40°40' W 074°02'0 0.0
2018-Feb-22 08:30N 40°40' W 074°02'0 0.0
2018-Feb-22 08:00N 40°40' W 074°02'1 1.1
2018-Feb-22 07:30N 40°40' W 074°02'2 3.4
2018-Feb-22 07:00N 40°41' W 074°00'1 1.8
2018-Feb-22 06:30N 40°41' W 074°01'1 2.7
2018-Feb-22 06:00N 40°40' W 074°02'0 0.1
2018-Feb-22 05:30N 40°40' W 074°02'0 0.0
2018-Feb-22 05:00N 40°40' W 074°02'0 0.1
2018-Feb-22 04:30N 40°40' W 074°02'0 0.0
2018-Feb-22 04:00N 40°40' W 074°02'0 0.0
2018-Feb-22 03:29N 40°40' W 074°02'0 0.0
2018-Feb-22 03:00N 40°40' W 074°02'0 0.0
2018-Feb-22 02:30N 40°40' W 074°02'0 0.0
2018-Feb-22 02:00N 40°40' W 074°02'0 0.8
2018-Feb-22 01:30N 40°40' W 074°03'3 4.9
2018-Feb-22 01:00N 40°39' W 074°06'3 4.9
2018-Feb-22 00:29N 40°39' W 074°09'2 3.9
2018-Feb-21 23:58N 40°41' W 074°09'0 0.6
2018-Feb-21 23:30N 40°41' W 074°10'2 4.2
2018-Feb-21 23:00N 40°39' W 074°09'4 7.2
2018-Feb-21 22:30N 40°37' W 074°12'3 6.7
2018-Feb-21 22:00N 40°33' W 074°14'1 2.9
2018-Feb-21 21:30N 40°33' W 074°15'0 0.6
2018-Feb-21 20:58N 40°32' W 074°15'0 0.2
2018-Feb-21 20:08N 40°32' W 074°15'1 5.3
2018-Feb-21 19:54N 40°33' W 074°14'3 6.9
2018-Feb-21 19:30N 40°36' W 074°12'3 6.6
2018-Feb-21 19:00N 40°39' W 074°11'2 4.5
2018-Feb-21 18:30N 40°39' W 074°08'0 0.7
2018-Feb-21 18:00N 40°39' W 074°07'0 0.0
2018-Feb-21 17:30N 40°39' W 074°07'3 7.0
2018-Feb-21 17:00N 40°38' W 074°12'2 3.4
2018-Feb-21 16:30N 40°37' W 074°12'0 0.0
2018-Feb-21 16:00N 40°37' W 074°12'1 1.3
2018-Feb-21 15:30N 40°37' W 074°12'3 5.9
2018-Feb-21 15:00N 40°39' W 074°09'1 1.2
2018-Feb-21 14:30N 40°39' W 074°08'3 6.7
2018-Feb-21 13:59N 40°37' W 074°12'1 1.7
2018-Feb-21 13:14N 40°36' W 074°12'0 0.0
2018-Feb-21 12:59N 40°36' W 074°12'1 1.4
2018-Feb-21 12:30N 40°35' W 074°12'0 0.0
2018-Feb-21 12:00N 40°35' W 074°12'0 0.0
2018-Feb-21 11:30N 40°35' W 074°12'0 0.0
2018-Feb-21 11:00N 40°35' W 074°12'0 0.0
2018-Feb-21 10:30N 40°35' W 074°12'0 0.0
2018-Feb-21 07:05N 40°35' W 074°12'0 0.0
2018-Feb-21 06:55N 40°35' W 074°12'0 0.0
2018-Feb-21 06:29N 40°35' W 074°12'0 0.0
2018-Feb-21 05:59N 40°35' W 074°12'0 0.0
2018-Feb-21 05:29N 40°35' W 074°12'0 0.0
2018-Feb-21 05:00N 40°35' W 074°12'0 0.0
2018-Feb-21 04:28N 40°35' W 074°12'0 0.0
2018-Feb-21 03:33N 40°35' W 074°12'0 1.5
2018-Feb-21 03:24N 40°36' W 074°12'0 1.1
2018-Feb-21 03:00N 40°36' W 074°12'2 3.8
2018-Feb-21 02:29N 40°38' W 074°12'4 7.7
2018-Feb-21 02:00N 40°39' W 074°07'0 0.1
2018-Feb-21 01:31N 40°39' W 074°07'0 0.0
2018-Feb-21 00:59N 40°39' W 074°07'0 0.0
2018-Feb-21 00:30N 40°39' W 074°07'0 0.9
2018-Feb-21 00:00N 40°39' W 074°08'3 6.7
2018-Feb-20 23:30N 40°38' W 074°12'2 5.0
2018-Feb-20 23:00N 40°35' W 074°12'0 0.0
2018-Feb-20 22:26N 40°35' W 074°12'0 0.0
2018-Feb-20 21:56N 40°35' W 074°12'0 0.0
2018-Feb-20 21:25N 40°35' W 074°12'0 0.0
2018-Feb-20 20:59N 40°35' W 074°12'0 0.0
2018-Feb-20 20:29N 40°35' W 074°12'1 2.3
2018-Feb-20 19:59N 40°37' W 074°12'0 0.0
2018-Feb-20 19:30N 40°37' W 074°12'0 0.1
2018-Feb-20 19:00N 40°36' W 074°12'3 6.5
2018-Feb-20 18:30N 40°39' W 074°09'1 2.9
2018-Feb-20 18:00N 40°39' W 074°07'0 0.0
2018-Feb-20 17:30N 40°39' W 074°07'0 0.0
2018-Feb-20 17:00N 40°39' W 074°07'1 2.2
2018-Feb-20 16:30N 40°38' W 074°09'1 0.5
2018-Feb-20 14:58N 40°39' W 074°10'1 3.0
2018-Feb-20 14:30N 40°39' W 074°08'4 6.7
2018-Feb-20 13:59N 40°38' W 074°12'2 0.7
2018-Feb-20 10:46N 40°35' W 074°12'0 0.0
2018-Feb-20 10:28N 40°35' W 074°12'0 0.0
2018-Feb-20 09:59N 40°35' W 074°12'0 0.0
2018-Feb-20 09:30N 40°35' W 074°12'0 0.0
2018-Feb-20 08:57N 40°35' W 074°12'0 0.0
2018-Feb-20 08:29N 40°35' W 074°12'0 0.0
2018-Feb-20 08:00N 40°35' W 074°12'0 0.0
2018-Feb-20 07:19N 40°35' W 074°12'0 0.0
2018-Feb-20 04:43N 40°35' W 074°12'1 3.0
2018-Feb-20 04:28N 40°36' W 074°12'0 0.9
2018-Feb-20 04:00N 40°36' W 074°12'0 0.0
2018-Feb-20 03:29N 40°36' W 074°12'0 0.2
2018-Feb-20 03:00N 40°36' W 074°12'2 5.0
2018-Feb-20 02:30N 40°39' W 074°11'3 6.7
2018-Feb-20 02:00N 40°39' W 074°07'0 0.0
2018-Feb-20 01:30N 40°39' W 074°07'0 0.0
2018-Feb-20 00:59N 40°39' W 074°07'0 0.0
2018-Feb-20 00:30N 40°39' W 074°07'0 0.0
2018-Feb-20 00:00N 40°39' W 074°07'0 0.0
2018-Feb-19 23:29N 40°39' W 074°07'0 0.0
2018-Feb-19 23:00N 40°39' W 074°07'0 0.0
2018-Feb-19 22:30N 40°39' W 074°07'0 0.0
2018-Feb-19 22:00N 40°39' W 074°07'0 0.0
2018-Feb-19 21:30N 40°39' W 074°07'0 0.0
2018-Feb-19 21:00N 40°39' W 074°07'0 0.0
2018-Feb-19 20:29N 40°39' W 074°07'0 0.0
2018-Feb-19 20:00N 40°39' W 074°07'0 0.0
2018-Feb-19 19:30N 40°39' W 074°07'0 0.0
2018-Feb-19 19:00N 40°39' W 074°07'0 0.0
2018-Feb-19 18:29N 40°39' W 074°07'0 0.5
2018-Feb-19 18:00N 40°39' W 074°07'0 0.3
2018-Feb-19 17:30N 40°39' W 074°07'0 0.4
2018-Feb-19 17:00N 40°39' W 074°07'0 0.3
2018-Feb-19 16:30N 40°38' W 074°07'0 0.0
2018-Feb-19 16:00N 40°38' W 074°07'0 0.0
2018-Feb-19 15:30N 40°38' W 074°07'0 0.0
2018-Feb-19 14:58N 40°38' W 074°07'2 4.4
2018-Feb-19 14:30N 40°39' W 074°10'3 6.4
2018-Feb-19 14:00N 40°36' W 074°12'1 1.4
2018-Feb-19 13:25N 40°35' W 074°12'0 0.1
2018-Feb-19 10:38N 40°35' W 074°12'0 0.0
2018-Feb-19 10:30N 40°35' W 074°12'0 0.0
2018-Feb-19 10:00N 40°35' W 074°12'0 0.0
2018-Feb-19 09:27N 40°35' W 074°12'0 0.0
2018-Feb-19 08:59N 40°35' W 074°12'0 0.0
2018-Feb-19 08:25N 40°35' W 074°12'1 1.4
2018-Feb-19 07:59N 40°36' W 074°12'3 6.1
2018-Feb-19 07:30N 40°39' W 074°11'3 4.8
2018-Feb-19 06:59N 40°41' W 074°09'1 1.7
2018-Feb-19 06:29N 40°41' W 074°10'0 0.0
2018-Feb-19 06:00N 40°41' W 074°10'0 0.0
2018-Feb-19 05:30N 40°41' W 074°10'0 0.0
2018-Feb-19 04:59N 40°41' W 074°10'0 0.0
2018-Feb-19 04:30N 40°41' W 074°10'0 0.0
2018-Feb-19 04:00N 40°41' W 074°10'2 4.5
2018-Feb-19 03:30N 40°39' W 074°09'4 7.1
2018-Feb-19 03:00N 40°36' W 074°12'0 0.3
2018-Feb-19 02:14N 40°36' W 074°12'0 0.5
2018-Feb-19 02:00N 40°36' W 074°12'1 2.3
2018-Feb-19 01:30N 40°35' W 074°13'0 0.7
2018-Feb-19 00:53N 40°35' W 074°12'0 0.0
2018-Feb-19 00:29N 40°35' W 074°12'0 0.0
2018-Feb-18 23:57N 40°35' W 074°12'0 0.0
2018-Feb-18 23:08N 40°35' W 074°12'0 0.0
2018-Feb-18 22:55N 40°35' W 074°12'0 0.0
2018-Feb-18 22:25N 40°35' W 074°12'0 0.0
2018-Feb-18 21:57N 40°35' W 074°12'0 0.0
2018-Feb-18 21:29N 40°35' W 074°12'0 0.0
2018-Feb-18 21:00N 40°35' W 074°12'0 0.0
2018-Feb-18 20:24N 40°35' W 074°12'0 0.0
2018-Feb-18 20:00N 40°35' W 074°12'0 0.0
2018-Feb-18 19:30N 40°35' W 074°12'0 0.0
2018-Feb-18 19:00N 40°35' W 074°12'0 0.0
2018-Feb-18 18:30N 40°35' W 074°12'0 0.0
2018-Feb-18 17:59N 40°35' W 074°12'0 0.0
2018-Feb-18 17:30N 40°35' W 074°12'0 0.0
2018-Feb-18 16:11N 40°35' W 074°12'0 0.0
2018-Feb-18 15:46N 40°35' W 074°12'0 0.0
2018-Feb-18 15:30N 40°35' W 074°12'0 0.0
2018-Feb-18 15:00N 40°35' W 074°12'0 0.0
2018-Feb-18 14:30N 40°35' W 074°12'0 0.0
2018-Feb-18 14:00N 40°35' W 074°12'0 0.2
2018-Feb-18 13:28N 40°35' W 074°12'0 0.1
2018-Feb-18 13:00N 40°35' W 074°12'1 0.9
2018-Feb-18 12:27N 40°36' W 074°12'0 0.8
2018-Feb-18 12:00N 40°35' W 074°12'0 0.0
2018-Feb-18 11:30N 40°35' W 074°12'0 0.0
2018-Feb-18 10:59N 40°35' W 074°12'0 0.0
2018-Feb-18 10:30N 40°35' W 074°12'0 0.0
2018-Feb-18 10:00N 40°35' W 074°12'0 0.0
2018-Feb-18 09:30N 40°35' W 074°12'0 0.0
2018-Feb-18 09:00N 40°35' W 074°12'0 0.0
2018-Feb-18 08:30N 40°35' W 074°12'0 0.0
2018-Feb-18 08:00N 40°35' W 074°12'0 0.0
2018-Feb-18 07:29N 40°35' W 074°12'0 0.0
2018-Feb-18 07:00N 40°35' W 074°12'0 0.0
2018-Feb-18 06:28N 40°35' W 074°12'0 0.0
2018-Feb-18 06:00N 40°35' W 074°12'0 0.0
2018-Feb-18 05:29N 40°35' W 074°12'0 0.7
2018-Feb-18 04:59N 40°35' W 074°12'0 0.6
2018-Feb-18 04:27N 40°35' W 074°12'0 0.0
2018-Feb-18 04:00N 40°35' W 074°12'0 0.0
2018-Feb-18 03:30N 40°35' W 074°12'0 0.0
2018-Feb-18 03:00N 40°35' W 074°12'0 0.0
2018-Feb-18 02:26N 40°35' W 074°12'0 0.0
2018-Feb-18 02:00N 40°35' W 074°12'0 0.0
2018-Feb-18 01:29N 40°35' W 074°12'0 0.0
2018-Feb-18 00:56N 40°35' W 074°12'0 0.0
2018-Feb-18 00:29N 40°35' W 074°12'0 0.0
2018-Feb-17 23:59N 40°35' W 074°12'0 0.0
2018-Feb-17 23:30N 40°35' W 074°12'0 0.0
2018-Feb-17 22:52N 40°35' W 074°12'0 0.0
2018-Feb-17 22:28N 40°35' W 074°12'0 0.0
2018-Feb-17 22:00N 40°35' W 074°12'0 0.0
2018-Feb-17 21:28N 40°35' W 074°12'2 3.9
2018-Feb-17 20:56N 40°33' W 074°13'2 4.5
2018-Feb-17 20:24N 40°31' W 074°15'1 2.5
2018-Feb-17 19:52N 40°33' W 074°15'3 6.5
2018-Feb-17 19:28N 40°35' W 074°13'0 0.6
2018-Feb-17 18:58N 40°35' W 074°13'1 2.6
2018-Feb-17 18:29N 40°36' W 074°12'3 6.2
2018-Feb-17 18:00N 40°39' W 074°11'3 5.6
2018-Feb-17 17:30N 40°39' W 074°07'0 0.0
2018-Feb-17 17:00N 40°39' W 074°07'0 0.0
2018-Feb-17 16:30N 40°39' W 074°07'0 0.0
2018-Feb-17 16:00N 40°39' W 074°07'0 0.0
2018-Feb-17 15:28N 40°39' W 074°07'0 0.0
2018-Feb-17 15:00N 40°39' W 074°07'0 0.0
2018-Feb-17 14:30N 40°39' W 074°07'0 0.0
2018-Feb-17 14:00N 40°39' W 074°07'0 0.0
2018-Feb-17 13:30N 40°39' W 074°07'0 0.0
2018-Feb-17 12:59N 40°39' W 074°07'0 0.0
2018-Feb-17 12:29N 40°39' W 074°07'0 0.0
2018-Feb-17 12:00N 40°39' W 074°07'0 0.0
2018-Feb-17 11:30N 40°39' W 074°07'0 0.0
2018-Feb-17 11:00N 40°39' W 074°07'0 0.0
2018-Feb-17 10:30N 40°39' W 074°07'0 0.0
2018-Feb-17 10:00N 40°39' W 074°07'0 0.0
2018-Feb-17 09:30N 40°39' W 074°07'0 0.0
2018-Feb-17 09:00N 40°39' W 074°07'0 0.0
2018-Feb-17 08:30N 40°39' W 074°07'0 0.0
2018-Feb-17 08:00N 40°39' W 074°07'0 0.0
2018-Feb-17 07:30N 40°39' W 074°07'0 0.0
2018-Feb-17 07:00N 40°39' W 074°07'0 0.0
2018-Feb-17 06:30N 40°39' W 074°07'0 0.0
2018-Feb-17 06:00N 40°39' W 074°07'0 0.0
2018-Feb-17 05:30N 40°39' W 074°07'0 0.0
2018-Feb-17 04:59N 40°39' W 074°07'0 0.0
2018-Feb-17 04:30N 40°39' W 074°07'0 0.0
2018-Feb-17 04:00N 40°39' W 074°07'0 0.0
2018-Feb-17 03:30N 40°39' W 074°07'0 0.0
2018-Feb-17 03:00N 40°39' W 074°07'0 0.0
2018-Feb-17 02:30N 40°39' W 074°07'0 0.0
2018-Feb-17 02:00N 40°39' W 074°07'0 0.0
2018-Feb-17 01:30N 40°39' W 074°07'0 0.0
2018-Feb-17 01:00N 40°39' W 074°07'0 0.0
2018-Feb-17 00:29N 40°39' W 074°07'0 0.0
2018-Feb-17 00:00N 40°39' W 074°07'0 0.0
2018-Feb-16 23:30N 40°39' W 074°07'0 0.0
2018-Feb-16 23:00N 40°39' W 074°07'0 0.0
2018-Feb-16 22:30N 40°39' W 074°07'0 0.0
2018-Feb-16 22:00N 40°39' W 074°07'0 0.0
2018-Feb-16 21:30N 40°39' W 074°07'0 0.0
2018-Feb-16 21:00N 40°39' W 074°07'0 0.0
2018-Feb-16 20:29N 40°39' W 074°07'0 0.0
2018-Feb-16 19:59N 40°39' W 074°07'0 0.0
2018-Feb-16 18:30N 40°39' W 074°07'0 0.0
2018-Feb-16 18:00N 40°39' W 074°07'0 0.0
2018-Feb-16 17:30N 40°39' W 074°07'0 0.0
2018-Feb-16 17:00N 40°39' W 074°07'0 0.0
2018-Feb-16 16:30N 40°39' W 074°07'0 0.0
2018-Feb-16 15:58N 40°39' W 074°07'0 0.0
2018-Feb-16 15:29N 40°39' W 074°07'0 0.0
2018-Feb-16 15:00N 40°39' W 074°07'0 0.5
2018-Feb-16 14:30N 40°39' W 074°07'1 1.0
2018-Feb-16 13:56N 40°39' W 074°06'0 0.0
2018-Feb-16 13:30N 40°39' W 074°06'0 0.0
2018-Feb-16 12:59N 40°39' W 074°06'0 0.0
2018-Feb-16 12:30N 40°39' W 074°06'0 0.0
2018-Feb-16 12:00N 40°39' W 074°06'0 0.0
2018-Feb-16 11:30N 40°39' W 074°06'0 0.0
2018-Feb-16 11:00N 40°39' W 074°06'0 0.0
2018-Feb-16 10:27N 40°39' W 074°06'1 2.7
2018-Feb-16 10:00N 40°39' W 074°04'4 7.1
2018-Feb-16 09:30N 40°41' W 074°01'4 7.5
2018-Feb-16 09:00N 40°45' W 073°58'2 4.0
2018-Feb-16 08:29N 40°46' W 073°57'3 6.3
2018-Feb-16 08:00N 40°44' W 073°58'3 5.5
2018-Feb-16 07:30N 40°42' W 074°00'0 0.0
2018-Feb-16 07:00N 40°42' W 074°00'0 0.0
2018-Feb-16 06:30N 40°42' W 074°00'0 0.0
2018-Feb-16 06:00N 40°42' W 074°00'0 0.0
2018-Feb-16 05:30N 40°42' W 074°00'0 0.2
2018-Feb-16 05:00N 40°41' W 074°00'0 0.0
2018-Feb-16 04:30N 40°41' W 074°00'0 0.0
2018-Feb-16 04:00N 40°41' W 074°00'3 6.7
2018-Feb-16 03:30N 40°39' W 074°04'5 9.5
2018-Feb-16 03:00N 40°39' W 074°10'3 6.4
2018-Feb-16 02:30N 40°36' W 074°12'1 1.3
2018-Feb-16 02:00N 40°35' W 074°12'0 0.1
2018-Feb-15 23:18N 40°36' W 074°12'0 0.0
2018-Feb-15 22:50N 40°36' W 074°12'0 0.0
2018-Feb-15 22:16N 40°36' W 074°12'0 0.0
2018-Feb-15 21:43N 40°36' W 074°12'0 0.0
2018-Feb-15 21:26N 40°36' W 074°12'2 3.8
2018-Feb-15 21:00N 40°37' W 074°12'3 6.9
2018-Feb-15 20:30N 40°39' W 074°08'1 2.1
2018-Feb-15 20:00N 40°39' W 074°07'0 0.3
2018-Feb-15 19:30N 40°39' W 074°06'0 0.0
2018-Feb-15 19:00N 40°39' W 074°06'4 7.5
2018-Feb-15 18:30N 40°39' W 074°11'3 0.9
2018-Feb-15 15:22N 40°36' W 074°12'0 0.0
2018-Feb-15 14:59N 40°36' W 074°12'0 0.0
2018-Feb-15 11:39N 40°36' W 074°12'0 0.0
2018-Feb-15 11:25N 40°36' W 074°12'0 0.0
2018-Feb-15 10:52N 40°36' W 074°12'0 0.0
2018-Feb-15 10:28N 40°36' W 074°12'0 0.0
2018-Feb-15 09:33N 40°36' W 074°12'0 0.0
2018-Feb-15 09:30N 40°36' W 074°12'0 0.0
2018-Feb-15 08:57N 40°36' W 074°12'0 0.0
2018-Feb-15 07:59N 40°36' W 074°12'0 0.0
2018-Feb-15 07:29N 40°36' W 074°12'0 0.0
2018-Feb-15 06:59N 40°36' W 074°12'0 0.0
2018-Feb-15 06:30N 40°36' W 074°12'0 0.0
2018-Feb-15 05:46N 40°36' W 074°12'0 0.0
2018-Feb-15 05:29N 40°36' W 074°12'0 0.0
2018-Feb-15 03:05N 40°36' W 074°12'0 2.8
2018-Feb-15 02:58N 40°35' W 074°12'0 0.1
2018-Feb-15 02:29N 40°36' W 074°12'0 0.1
2018-Feb-15 02:00N 40°35' W 074°12'1 2.8
2018-Feb-15 01:30N 40°37' W 074°12'3 6.2
2018-Feb-15 01:00N 40°39' W 074°09'2 3.2
2018-Feb-15 00:30N 40°39' W 074°07'0 0.0
2018-Feb-15 00:00N 40°39' W 074°07'0 0.0
2018-Feb-14 23:30N 40°39' W 074°07'0 0.0
2018-Feb-14 23:00N 40°39' W 074°07'0 0.0
2018-Feb-14 22:30N 40°39' W 074°07'0 0.0
2018-Feb-14 22:00N 40°39' W 074°07'0 0.0
2018-Feb-14 21:26N 40°39' W 074°07'0 0.0
2018-Feb-14 21:00N 40°39' W 074°07'0 0.0
2018-Feb-14 20:30N 40°39' W 074°07'0 0.0
2018-Feb-14 20:00N 40°39' W 074°07'0 0.0
2018-Feb-14 19:29N 40°39' W 074°07'0 0.0
2018-Feb-14 18:59N 40°39' W 074°07'0 0.0
2018-Feb-14 18:30N 40°39' W 074°07'0 0.0
2018-Feb-14 18:00N 40°39' W 074°07'0 0.0
2018-Feb-14 17:30N 40°39' W 074°07'0 0.0
2018-Feb-14 17:00N 40°39' W 074°07'0 0.0
2018-Feb-14 16:30N 40°39' W 074°07'0 0.0
2018-Feb-14 16:00N 40°39' W 074°07'0 0.0
2018-Feb-14 15:30N 40°39' W 074°07'0 0.0
2018-Feb-14 14:59N 40°39' W 074°07'0 0.0
2018-Feb-14 14:30N 40°39' W 074°07'0 0.0
2018-Feb-14 14:00N 40°39' W 074°07'2 4.9
2018-Feb-14 13:30N 40°39' W 074°10'3 6.5
2018-Feb-14 13:00N 40°36' W 074°12'0 0.5
2018-Feb-14 12:30N 40°36' W 074°12'0 0.0
2018-Feb-14 12:00N 40°36' W 074°12'0 0.0
2018-Feb-14 11:30N 40°36' W 074°12'0 0.0
2018-Feb-14 11:00N 40°36' W 074°12'0 0.0
2018-Feb-14 10:30N 40°36' W 074°12'0 0.0
2018-Feb-14 10:00N 40°36' W 074°12'0 0.0
2018-Feb-14 09:30N 40°36' W 074°12'0 0.0
2018-Feb-14 09:00N 40°36' W 074°12'0 0.0
2018-Feb-14 08:29N 40°36' W 074°12'0 0.0
2018-Feb-14 07:58N 40°36' W 074°12'0 0.0
2018-Feb-14 07:30N 40°36' W 074°12'0 0.0
2018-Feb-14 07:00N 40°36' W 074°12'0 0.0
2018-Feb-14 06:30N 40°36' W 074°12'0 0.0
2018-Feb-14 06:00N 40°36' W 074°12'0 0.0
2018-Feb-14 05:28N 40°36' W 074°12'3 5.7
2018-Feb-14 05:00N 40°38' W 074°12'3 6.2
2018-Feb-14 04:30N 40°40' W 074°08'1 2.8
2018-Feb-14 03:59N 40°41' W 074°10'  

Dump ship's entire track history